<?xml version='1.0' encoding='UTF-8'?>
<gpx xmlns="http://www.topografix.com/GPX/1/1" creator="www.balnam.be" version="1.1" xmlns:xsi="http://www.w3.org/2001/XMLSchema-instance" xsi:schemaLocation="http://www.topografix.com/GPX/1/1 http://www.topografix.com/GPX/1/1/gpx.xsd">
<trk>
<name>lcpps1</name>
<cmt>r</cmt>
<desc>Poulseur Chemin n°1 Rue de l'Ourthe / Rue d'Anthisnes / Route de Mont</desc>
<link href="https://chemins.be/poulseur/chemin/1"/><trkseg>
<trkpt lat="50.510823" lon="5.577996"><time>2026-05-02T20:10:11Z</time></trkpt>
<trkpt lat="50.510651" lon="5.578104"><time>2026-05-02T20:20:11Z</time></trkpt>
<trkpt lat="50.510515" lon="5.578199"><time>2026-05-02T20:30:11Z</time></trkpt>
<trkpt lat="50.510334" lon="5.578322"><time>2026-05-02T20:40:11Z</time></trkpt>
<trkpt lat="50.510126" lon="5.578485"><time>2026-05-02T20:50:11Z</time></trkpt>
<trkpt lat="50.509972" lon="5.578566"><time>2026-05-02T21:00:11Z</time></trkpt>
<trkpt lat="50.509891" lon="5.578592"><time>2026-05-02T21:10:11Z</time></trkpt>
<trkpt lat="50.509828" lon="5.578605"><time>2026-05-02T21:20:11Z</time></trkpt>
<trkpt lat="50.509594" lon="5.578599"><time>2026-05-02T21:30:11Z</time></trkpt>
<trkpt lat="50.509396" lon="5.578580"><time>2026-05-02T21:40:11Z</time></trkpt>
<trkpt lat="50.509360" lon="5.578565"><time>2026-05-02T21:50:11Z</time></trkpt>
<trkpt lat="50.509316" lon="5.578549"><time>2026-05-02T22:00:11Z</time></trkpt>
<trkpt lat="50.509289" lon="5.578520"><time>2026-05-02T22:10:11Z</time></trkpt>
<trkpt lat="50.509253" lon="5.578491"><time>2026-05-02T22:20:11Z</time></trkpt>
<trkpt lat="50.509200" lon="5.578391"><time>2026-05-02T22:30:11Z</time></trkpt>
<trkpt lat="50.508954" lon="5.577863"><time>2026-05-02T22:40:11Z</time></trkpt>
<trkpt lat="50.508871" lon="5.578059"><time>2026-05-02T22:50:11Z</time></trkpt>
<trkpt lat="50.508807" lon="5.578184"><time>2026-05-02T23:00:11Z</time></trkpt>
<trkpt lat="50.508552" lon="5.578502"><time>2026-05-02T23:10:11Z</time></trkpt>
<trkpt lat="50.508416" lon="5.578625"><time>2026-05-02T23:20:11Z</time></trkpt>
<trkpt lat="50.508370" lon="5.578666"><time>2026-05-02T23:30:11Z</time></trkpt>
<trkpt lat="50.508472" lon="5.579023"><time>2026-05-02T23:40:11Z</time></trkpt>
<trkpt lat="50.507783" lon="5.579421"><time>2026-05-02T23:50:11Z</time></trkpt>
<trkpt lat="50.506823" lon="5.579289"><time>2026-05-03T00:00:11Z</time></trkpt>
<trkpt lat="50.504733" lon="5.578113"><time>2026-05-03T00:10:11Z</time></trkpt>
<trkpt lat="50.503695" lon="5.578413"><time>2026-05-03T00:20:11Z</time></trkpt>
<trkpt lat="50.502358" lon="5.576448"><time>2026-05-03T00:30:11Z</time></trkpt>
<trkpt lat="50.501981" lon="5.576345"><time>2026-05-03T00:40:11Z</time></trkpt>
<trkpt lat="50.501255" lon="5.577263"><time>2026-05-03T00:50:11Z</time></trkpt>
<trkpt lat="50.500758" lon="5.578559"><time>2026-05-03T01:00:11Z</time></trkpt>
<trkpt lat="50.499868" lon="5.578439"><time>2026-05-03T01:10:11Z</time></trkpt>
<trkpt lat="50.499196" lon="5.577870"><time>2026-05-03T01:20:11Z</time></trkpt>
</trkseg></trk>
<trk>
<name>lcpps1</name>
<cmt>v</cmt>
<desc>Poulseur Chemin n°1 Rue de l'Ourthe / Rue d'Anthisnes / Route de Mont</desc>
<link href="https://chemins.be/poulseur/chemin/1"/><trkseg>
<trkpt lat="50.499196" lon="5.577870"><time>2026-05-03T01:20:11Z</time></trkpt>
<trkpt lat="50.497718" lon="5.572600"><time>2026-05-03T01:30:11Z</time></trkpt>
<trkpt lat="50.497419" lon="5.571850"><time>2026-05-03T01:40:11Z</time></trkpt>
</trkseg>
</trk>
</gpx>